Accueil
METAR-TAF:

METAR-TAF

Aéroports :

Aérodrome de Koumac

Koumac, Nouvelle-Calédonie

latitude: 20-34S, longitude: 164-17E, altitude: 23 m

METAR: absent

Heure: 01:10 (14:10 UTC)

Prévision

Le bulletin a été fait il y a 7 heures et 14 minutes, à 06:56 UTC
Prévision valable du 19 à 06 UTC au 20 à 06 UTC
Vent 12 kt de nord
Visibilité 10 km ou plus
Nuages épars à une hauteur de 3500 ft
Nuages fragmentés à une hauteur de 6000 ft
Ciel couvert à une hauteur de 11000 ft
pluie
Temporairement
du 19 à 06 UTC au 19 à 21 UTC
Vent 12 kt de sud-ouest
Visibilité: 4000 m
Nuages épars à une hauteur de 2000 ft, Cumulonimbus.
averses de pluie
Evoluant progressivement
du 20 à 00 UTC au 20 à 02 UTC
Vent 15 kt de sud/sud-ouest

TAF: NWWK 190656Z 1906/2006 01012KT 9999 RA SCT035 BKN060 OVC110 TEMPO 1906/1921 23012KT 4000 SHRA SCT020CB BECMG 2000/2002 21015KT

Observations et prévisions météorologiques de plus de 4000 aéroports (messages METAR et TAF).

Les stations disponibles sont représentées par des disques jaunes et rouges sur la carte.

Passer la souris dessus pour voir le nom de la station.

Cliquer dessus pour voir les observations et prévisions météorologiques.

Pour changer de carte: cliquez sur les boutons verts avec une croix noire pour zoomer, sur le bouton vert avec un tiret pour effectuer un zoom arrière, ou sur les flèches vertes pour les cartes adjacentes.


METAR-TAF: